Wetterdaten: Woche 10.06.02 - 16.06.02 (KW24)
Datum Zeit Temperatur Luftfeuchte Luftdruck Regenmenge Wind Richtung Taupunkt Windchill
10.06.2002 00:00 13.3 C 99 % 1010.8 hPa 0.0 l/m 1.9 km/h (1 Bft) W-NW 13.2 C 13.3 C
10.06.2002 01:00 13.0 C 99 % 1010.8 hPa 0.0 l/m 11.0 km/h (2 Bft) NW 12.9 C 13.0 C
10.06.2002 02:00 12.9 C 97 % 1010.8 hPa 0.3 l/m 6.3 km/h (2 Bft) NW 12.4 C 12.9 C
10.06.2002 03:00 12.3 C 99 % 1010.8 hPa 1.2 l/m 14.9 km/h (3 Bft) NW 12.1 C 12.3 C
10.06.2002 04:00 11.7 C 99 % 1011.1 hPa 0.9 l/m 14.8 km/h (3 Bft) NW 11.6 C 11.7 C
10.06.2002 05:00 11.7 C 100 % 1011.8 hPa 0.0 l/m 11.8 km/h (2 Bft) NW 11.6 C 11.7 C
10.06.2002 06:00 11.4 C 95 % 1012.2 hPa 0.0 l/m 12.7 km/h (3 Bft) NW 10.6 C 11.4 C
10.06.2002 07:00 11.2 C 91 % 1012.8 hPa 0.0 l/m 16.5 km/h (3 Bft) NW 9.9 C 11.2 C
10.06.2002 08:00 11.6 C 88 % 1013.5 hPa 0.0 l/m 15.6 km/h (3 Bft) NW 9.7 C 11.6 C
10.06.2002 09:00 11.4 C 88 % 1014.6 hPa 0.0 l/m 18.9 km/h (3 Bft) NW 9.4 C 11.4 C
10.06.2002 10:00 12.0 C 81 % 1014.9 hPa 0.0 l/m 20.1 km/h (4 Bft) NW 8.8 C 12.0 C
10.06.2002 11:00 12.8 C 67 % 1015.5 hPa 0.0 l/m 30.2 km/h (5 Bft) NW 6.8 C 12.8 C
10.06.2002 12:00 14.1 C 58 % 1015.9 hPa 0.0 l/m 27.7 km/h (4 Bft) NW 5.9 C 14.1 C
10.06.2002 13:00 15.3 C 53 % 1015.9 hPa 0.0 l/m 26.8 km/h (4 Bft) NW 5.7 C 15.3 C
10.06.2002 14:00 16.4 C 50 % 1015.9 hPa 0.0 l/m 21.3 km/h (4 Bft) NW 6.0 C 16.4 C
10.06.2002 15:00 15.7 C 52 % 1016.0 hPa 0.0 l/m 25.9 km/h (4 Bft) NW 5.9 C 15.7 C
10.06.2002 16:00 16.6 C 49 % 1016.2 hPa 0.0 l/m 20.7 km/h (4 Bft) NW 6.0 C 16.6 C
10.06.2002 17:00 16.2 C 52 % 1016.2 hPa 0.0 l/m 21.5 km/h (4 Bft) NW 6.2 C 16.2 C
10.06.2002 18:00 16.6 C 53 % 1017.0 hPa 0.0 l/m 22.1 km/h (4 Bft) NW 7.0 C 16.6 C
10.06.2002 19:00 15.0 C 60 % 1017.0 hPa 0.0 l/m 16.0 km/h (3 Bft) NW 7.1 C 15.0 C
10.06.2002 20:00 14.0 C 69 % 1017.5 hPa 0.0 l/m 9.6 km/h (2 Bft) NW 8.4 C 14.0 C
10.06.2002 21:00 12.2 C 77 % 1018.0 hPa 0.0 l/m 0.8 km/h (0 Bft) SO 8.3 C 12.2 C
10.06.2002 22:00 10.8 C 84 % 1018.8 hPa 0.0 l/m 3.1 km/h (1 Bft) SO 8.2 C 10.8 C
10.06.2002 23:00 10.6 C 88 % 1019.0 hPa 0.0 l/m 0.5 km/h (0 Bft) SO 8.7 C 10.6 C
11.06.2002 00:00 9.2 C 94 % 1019.0 hPa 0.0 l/m 1.8 km/h (1 Bft) O-SO 8.3 C 9.1 C
11.06.2002 01:00 7.8 C 99 % 1019.0 hPa 0.0 l/m 1.6 km/h (1 Bft) SO 7.6 C 7.7 C
11.06.2002 02:00 7.7 C 100 % 1018.6 hPa 0.0 l/m 0.6 km/h (0 Bft) SO 7.7 C 7.7 C
11.06.2002 03:00 7.4 C 100 % 1019.0 hPa 0.0 l/m 0.8 km/h (0 Bft) O-SO 7.4 C 7.4 C
11.06.2002 04:00 6.6 C 100 % 1019.0 hPa 0.0 l/m 2.6 km/h (1 Bft) O-SO 6.6 C 6.4 C
11.06.2002 05:00 7.5 C 100 % 1019.0 hPa 0.0 l/m 0.2 km/h (0 Bft) O-SO 7.5 C 7.5 C
11.06.2002 06:00 8.5 C 98 % 1019.0 hPa 0.0 l/m 0.0 km/h (0 Bft) N 8.3 C 8.5 C
11.06.2002 07:00 9.8 C 91 % 1019.0 hPa 0.0 l/m 0.4 km/h (0 Bft) SO 8.4 C 9.8 C
11.06.2002 08:00 11.5 C 82 % 1019.0 hPa 0.0 l/m 1.5 km/h (1 Bft) SO 8.4 C 11.5 C
11.06.2002 09:00 13.6 C 71 % 1019.0 hPa 0.0 l/m 3.3 km/h (1 Bft) W-NW 8.5 C 13.6 C
11.06.2002 10:00 15.8 C 63 % 1018.2 hPa 0.0 l/m 6.0 km/h (2 Bft) SO 8.7 C 15.8 C
11.06.2002 11:00 17.3 C 56 % 1018.0 hPa 0.0 l/m 3.7 km/h (1 Bft) O-SO 8.5 C 17.3 C
11.06.2002 12:00 18.1 C 54 % 1018.0 hPa 0.0 l/m 3.7 km/h (1 Bft) NW 8.7 C 18.1 C
11.06.2002 13:00 19.1 C 53 % 1018.0 hPa 0.0 l/m 6.2 km/h (2 Bft) NW 9.4 C 19.1 C
11.06.2002 14:00 19.3 C 53 % 1018.0 hPa 0.0 l/m 17.2 km/h (3 Bft) NW 9.6 C 19.3 C
11.06.2002 15:00 19.1 C 55 % 1018.0 hPa 0.0 l/m 16.5 km/h (3 Bft) NW 9.7 C 19.1 C
11.06.2002 16:00 19.5 C 54 % 1018.8 hPa 0.0 l/m 23.1 km/h (4 Bft) NW 9.8 C 19.5 C
11.06.2002 17:00 18.9 C 52 % 1019.0 hPa 0.0 l/m 25.3 km/h (4 Bft) NW 8.8 C 18.9 C
11.06.2002 18:00 19.4 C 51 % 1019.0 hPa 0.0 l/m 22.2 km/h (4 Bft) NW 8.8 C 19.4 C
11.06.2002 19:00 18.8 C 51 % 1019.2 hPa 0.0 l/m 17.2 km/h (3 Bft) NW 8.6 C 18.8 C
11.06.2002 20:00 17.7 C 56 % 1020.1 hPa 0.0 l/m 14.4 km/h (3 Bft) NW 8.8 C 17.7 C
11.06.2002 21:00 15.4 C 66 % 1020.3 hPa 0.0 l/m 3.3 km/h (1 Bft) NW 9.0 C 15.4 C
11.06.2002 22:00 13.5 C 73 % 1021.1 hPa 0.0 l/m 4.2 km/h (1 Bft) SO 8.8 C 13.5 C
11.06.2002 23:00 12.2 C 82 % 1021.1 hPa 0.0 l/m 5.0 km/h (1 Bft) O-SO 9.2 C 12.2 C
12.06.2002 00:00 10.7 C 88 % 1021.1 hPa 0.0 l/m 6.0 km/h (2 Bft) O-SO 8.8 C 10.6 C
12.06.2002 01:00 9.3 C 95 % 1021.1 hPa 0.0 l/m 4.9 km/h (1 Bft) O-SO 8.6 C 8.9 C
12.06.2002 02:00 8.4 C 99 % 1021.1 hPa 0.0 l/m 2.5 km/h (1 Bft) O-SO 8.2 C 8.2 C
12.06.2002 03:00 7.6 C 100 % 1021.1 hPa 0.0 l/m 2.1 km/h (1 Bft) O-SO 7.6 C 7.5 C
12.06.2002 04:00 7.2 C 100 % 1021.1 hPa 0.0 l/m 1.4 km/h (1 Bft) O-SO 7.1 C 7.0 C
12.06.2002 05:00 7.1 C 100 % 1021.1 hPa 0.0 l/m 2.0 km/h (1 Bft) O-SO 7.1 C 7.0 C
12.06.2002 06:00 8.2 C 99 % 1021.1 hPa 0.0 l/m 1.5 km/h (1 Bft) O-SO 8.0 C 8.0 C
12.06.2002 07:00 9.6 C 94 % 1021.1 hPa 0.0 l/m 0.0 km/h (0 Bft) N 8.6 C 9.6 C
12.06.2002 08:00 11.6 C 85 % 1021.1 hPa 0.0 l/m 0.2 km/h (0 Bft) O-SO 9.1 C 11.6 C
12.06.2002 09:00 14.5 C 74 % 1021.1 hPa 0.0 l/m 1.7 km/h (1 Bft) SO 10.0 C 14.5 C
12.06.2002 10:00 17.2 C 65 % 1021.0 hPa 0.0 l/m 1.1 km/h (1 Bft) SO 10.4 C 17.2 C
12.06.2002 11:00 19.5 C 55 % 1020.1 hPa 0.0 l/m 5.7 km/h (1 Bft) O-SO 10.2 C 19.5 C
12.06.2002 12:00 20.9 C 49 % 1020.1 hPa 0.0 l/m 3.5 km/h (1 Bft) W-NW 9.8 C 20.9 C
12.06.2002 13:00 22.5 C 46 % 1019.7 hPa 0.0 l/m 5.6 km/h (1 Bft) O-SO 10.4 C 22.5 C
12.06.2002 14:00 24.0 C 43 % 1019.0 hPa 0.0 l/m 5.5 km/h (1 Bft) O-SO 10.6 C 24.0 C
12.06.2002 15:00 25.4 C 41 % 1018.2 hPa 0.0 l/m 6.8 km/h (2 Bft) O-SO 11.3 C 25.4 C
12.06.2002 16:00 25.9 C 43 % 1018.0 hPa 0.0 l/m 1.1 km/h (1 Bft) O-SO 12.2 C 25.9 C
12.06.2002 17:00 25.7 C 44 % 1017.8 hPa 0.0 l/m 1.7 km/h (1 Bft) NW 12.5 C 25.7 C
12.06.2002 18:00 26.2 C 48 % 1017.0 hPa 0.0 l/m 6.3 km/h (2 Bft) W-NW 14.2 C 26.2 C
12.06.2002 19:00 25.0 C 52 % 1017.1 hPa 0.0 l/m 7.4 km/h (2 Bft) NW 14.5 C 25.0 C
12.06.2002 20:00 22.9 C 61 % 1018.0 hPa 0.0 l/m 5.4 km/h (1 Bft) NW 15.0 C 22.9 C
12.06.2002 21:00 20.6 C 70 % 1018.2 hPa 0.0 l/m 1.0 km/h (0 Bft) W-NW 14.9 C 20.6 C
12.06.2002 22:00 18.5 C 76 % 1019.0 hPa 0.0 l/m 4.2 km/h (1 Bft) O-SO 14.0 C 18.5 C
12.06.2002 23:00 16.5 C 83 % 1018.9 hPa 0.0 l/m 5.0 km/h (1 Bft) O-SO 13.6 C 16.5 C
13.06.2002 00:00 15.4 C 89 % 1019.0 hPa 0.0 l/m 5.9 km/h (2 Bft) O-SO 13.6 C 15.4 C
13.06.2002 01:00 14.9 C 91 % 1019.0 hPa 0.0 l/m 2.1 km/h (1 Bft) O-SO 13.5 C 14.9 C
13.06.2002 02:00 13.8 C 96 % 1019.0 hPa 0.0 l/m 1.0 km/h (0 Bft) O-SO 13.1 C 13.8 C
13.06.2002 03:00 13.1 C 98 % 1019.0 hPa 0.0 l/m 1.3 km/h (1 Bft) O-SO 12.8 C 13.1 C
13.06.2002 04:00 12.6 C 100 % 1019.0 hPa 0.0 l/m 0.5 km/h (0 Bft) O-SO 12.6 C 12.6 C
13.06.2002 05:00 12.3 C 100 % 1019.0 hPa 0.0 l/m 0.6 km/h (0 Bft) O-SO 12.3 C 12.3 C
13.06.2002 06:00 12.9 C 99 % 1019.8 hPa 0.0 l/m 1.0 km/h (0 Bft) O-SO 12.7 C 12.9 C
13.06.2002 07:00 14.3 C 97 % 1020.1 hPa 0.0 l/m 2.0 km/h (1 Bft) O-SO 13.8 C 14.3 C
13.06.2002 08:00 16.9 C 83 % 1020.1 hPa 0.0 l/m 1.8 km/h (1 Bft) SO 13.9 C 16.9 C
13.06.2002 09:00 20.0 C 64 % 1020.1 hPa 0.0 l/m 15.7 km/h (3 Bft) NW 12.8 C 20.0 C
13.06.2002 10:00 21.4 C 60 % 1020.1 hPa 0.0 l/m 12.3 km/h (3 Bft) NW 13.2 C 21.4 C
13.06.2002 11:00 22.1 C 57 % 1020.1 hPa 0.0 l/m 18.2 km/h (3 Bft) W-NW 13.3 C 22.1 C
13.06.2002 12:00 23.4 C 54 % 1019.8 hPa 0.0 l/m 16.0 km/h (3 Bft) NW 13.7 C 23.4 C
13.06.2002 13:00 24.7 C 51 % 1019.0 hPa 0.0 l/m 19.8 km/h (4 Bft) NW 13.8 C 24.7 C
13.06.2002 14:00 25.4 C 46 % 1019.0 hPa 0.0 l/m 25.8 km/h (4 Bft) NW 13.0 C 25.4 C
13.06.2002 15:00 26.5 C 42 % 1019.0 hPa 0.0 l/m 23.2 km/h (4 Bft) NW 12.7 C 26.5 C
13.06.2002 16:00 26.7 C 41 % 1018.6 hPa 0.0 l/m 27.1 km/h (4 Bft) NW 12.4 C 26.7 C
13.06.2002 17:00 27.0 C 41 % 1018.1 hPa 0.0 l/m 21.7 km/h (4 Bft) NW 12.5 C 27.0 C
13.06.2002 18:00 26.5 C 45 % 1018.0 hPa 0.0 l/m 18.5 km/h (3 Bft) NW 13.6 C 26.5 C
13.06.2002 19:00 25.2 C 49 % 1018.0 hPa 0.0 l/m 13.3 km/h (3 Bft) NW 13.6 C 25.2 C
13.06.2002 20:00 23.6 C 52 % 1018.0 hPa 0.0 l/m 21.8 km/h (4 Bft) NW 13.2 C 23.6 C
13.06.2002 21:00 22.0 C 57 % 1018.9 hPa 0.0 l/m 17.4 km/h (3 Bft) NW 13.2 C 22.0 C
13.06.2002 22:00 20.7 C 62 % 1019.0 hPa 0.0 l/m 8.0 km/h (2 Bft) W-NW 13.1 C 20.7 C
13.06.2002 23:00 18.5 C 67 % 1019.0 hPa 0.0 l/m 9.1 km/h (2 Bft) O-SO 12.1 C 18.5 C
14.06.2002 00:00 17.3 C 73 % 1019.5 hPa 0.0 l/m 5.9 km/h (2 Bft) O-SO 12.3 C 17.3 C
14.06.2002 01:00 15.9 C 80 % 1020.1 hPa 0.0 l/m 4.5 km/h (1 Bft) O-SO 12.5 C 15.9 C
14.06.2002 02:00 14.8 C 87 % 1020.1 hPa 0.0 l/m 0.6 km/h (0 Bft) O-SO 12.6 C 14.8 C
14.06.2002 03:00 13.4 C 94 % 1020.1 hPa 0.0 l/m 0.0 km/h (0 Bft) N 12.4 C 13.4 C
14.06.2002 04:00 12.5 C 97 % 1020.1 hPa 0.0 l/m 0.0 km/h (0 Bft) N 12.1 C 12.5 C
14.06.2002 05:00 11.9 C 99 % 1020.1 hPa 0.0 l/m 0.0 km/h (0 Bft) N 11.7 C 11.9 C
14.06.2002 06:00 12.1 C 99 % 1020.1 hPa 0.0 l/m 0.0 km/h (0 Bft) N 11.8 C 12.1 C
14.06.2002 07:00 13.1 C 97 % 1020.1 hPa 0.0 l/m 0.0 km/h (0 Bft) N 12.7 C 13.1 C
14.06.2002 08:00 15.5 C 87 % 1020.1 hPa 0.0 l/m 0.0 km/h (0 Bft) N 13.2 C 15.5 C
14.06.2002 09:00 18.8 C 77 % 1020.1 hPa 0.0 l/m 1.4 km/h (1 Bft) O-SO 14.6 C 18.8 C
14.06.2002 10:00 22.2 C 63 % 1019.8 hPa 0.0 l/m 7.3 km/h (2 Bft) SO 14.7 C 22.2 C
14.06.2002 11:00 24.4 C 53 % 1019.0 hPa 0.0 l/m 2.7 km/h (1 Bft) SO 14.3 C 24.4 C
14.06.2002 12:00 26.8 C 44 % 1019.0 hPa 0.0 l/m 9.7 km/h (2 Bft) O-SO 13.5 C 26.8 C
14.06.2002 13:00 28.4 C 39 % 1018.5 hPa 0.0 l/m 7.9 km/h (2 Bft) SO 13.0 C 28.4 C
14.06.2002 14:00 29.4 C 35 % 1018.0 hPa 0.0 l/m 3.9 km/h (1 Bft) S 12.2 C 29.4 C
14.06.2002 15:00 30.4 C 34 % 1017.1 hPa 0.0 l/m 3.7 km/h (1 Bft) NW 12.8 C 30.4 C
14.06.2002 16:00 30.9 C 36 % 1017.0 hPa 0.0 l/m 4.6 km/h (1 Bft) NW 14.0 C 30.9 C
14.06.2002 17:00 31.0 C 34 % 1015.9 hPa 0.0 l/m 4.0 km/h (1 Bft) W-NW 13.4 C 31.0 C
14.06.2002 18:00 30.8 C 35 % 1015.9 hPa 0.0 l/m 1.1 km/h (1 Bft) W 13.7 C 30.8 C
14.06.2002 19:00 29.6 C 39 % 1015.9 hPa 0.0 l/m 1.0 km/h (0 Bft) W-NW 14.1 C 29.6 C
14.06.2002 20:00 27.4 C 51 % 1015.9 hPa 0.0 l/m 0.0 km/h (0 Bft) S-SW 16.2 C 27.4 C
14.06.2002 21:00 22.9 C 65 % 1015.9 hPa 0.0 l/m 6.9 km/h (2 Bft) O-SO 15.9 C 22.9 C
14.06.2002 22:00 20.1 C 73 % 1016.9 hPa 0.0 l/m 4.7 km/h (1 Bft) O-SO 15.2 C 20.1 C
14.06.2002 23:00 18.2 C 81 % 1017.0 hPa 0.0 l/m 2.6 km/h (1 Bft) O-SO 14.8 C 18.2 C
15.06.2002 00:00 16.9 C 85 % 1017.0 hPa 0.0 l/m 1.9 km/h (1 Bft) O-SO 14.5 C 16.9 C
15.06.2002 01:00 16.0 C 89 % 1017.0 hPa 0.0 l/m 1.1 km/h (1 Bft) O-SO 14.1 C 16.0 C
15.06.2002 02:00 15.2 C 92 % 1017.0 hPa 0.0 l/m 0.7 km/h (0 Bft) O-SO 13.9 C 15.2 C
15.06.2002 03:00 14.7 C 95 % 1017.0 hPa 0.0 l/m 1.8 km/h (1 Bft) O-SO 13.8 C 14.7 C
15.06.2002 04:00 14.1 C 98 % 1017.0 hPa 0.0 l/m 1.8 km/h (1 Bft) O-SO 13.9 C 14.1 C
15.06.2002 05:00 13.9 C 98 % 1017.0 hPa 0.0 l/m 0.8 km/h (0 Bft) O-SO 13.6 C 13.9 C
15.06.2002 06:00 14.1 C 97 % 1017.1 hPa 0.0 l/m 0.0 km/h (0 Bft) N 13.6 C 14.1 C
15.06.2002 07:00 15.8 C 93 % 1018.0 hPa 0.0 l/m 0.0 km/h (0 Bft) N 14.7 C 15.8 C
15.06.2002 08:00 18.8 C 81 % 1018.0 hPa 0.0 l/m 0.9 km/h (0 Bft) O-SO 15.4 C 18.8 C
15.06.2002 09:00 21.6 C 68 % 1018.0 hPa 0.0 l/m 0.6 km/h (0 Bft) W-SW 15.3 C 21.6 C
15.06.2002 10:00 23.7 C 60 % 1018.0 hPa 0.0 l/m 2.8 km/h (1 Bft) O-SO 15.5 C 23.7 C
15.06.2002 11:00 25.3 C 56 % 1018.1 hPa 0.0 l/m 0.7 km/h (0 Bft) S-SO 15.9 C 25.3 C
15.06.2002 12:00 26.9 C 50 % 1018.1 hPa 0.0 l/m 1.2 km/h (1 Bft) W 15.5 C 26.9 C
15.06.2002 13:00 28.6 C 43 % 1017.9 hPa 0.0 l/m 6.8 km/h (2 Bft) O-SO 14.8 C 28.6 C
15.06.2002 14:00 30.3 C 38 % 1017.0 hPa 0.0 l/m 5.9 km/h (2 Bft) O-SO 14.4 C 30.3 C
15.06.2002 15:00 31.6 C 32 % 1016.2 hPa 0.0 l/m 7.0 km/h (2 Bft) O-SO 13.0 C 31.6 C
15.06.2002 16:00 32.0 C 30 % 1015.9 hPa 0.0 l/m 8.6 km/h (2 Bft) SO 12.4 C 32.0 C
15.06.2002 17:00 30.9 C 36 % 1015.9 hPa 0.0 l/m 10.9 km/h (2 Bft) W-NW 13.7 C 30.9 C
15.06.2002 18:00 28.3 C 50 % 1015.9 hPa 0.0 l/m 10.7 km/h (2 Bft) W-NW 16.7 C 28.3 C
15.06.2002 19:00 26.8 C 56 % 1015.9 hPa 0.0 l/m 2.4 km/h (1 Bft) O-SO 17.3 C 26.8 C
15.06.2002 20:00 25.9 C 58 % 1016.3 hPa 0.0 l/m 5.5 km/h (1 Bft) O-SO 17.0 C 25.9 C
15.06.2002 21:00 24.7 C 58 % 1017.0 hPa 0.0 l/m 3.3 km/h (1 Bft) O-SO 15.8 C 24.7 C
15.06.2002 22:00 23.6 C 59 % 1017.1 hPa 0.0 l/m 2.9 km/h (1 Bft) O-SO 15.1 C 23.6 C
15.06.2002 23:00 21.9 C 65 % 1018.0 hPa 0.0 l/m 1.2 km/h (1 Bft) O-SO 15.0 C 21.9 C
16.06.2002 00:00 20.9 C 72 % 1017.4 hPa 0.0 l/m 3.1 km/h (1 Bft) O-SO 15.6 C 20.9 C
16.06.2002 01:00 20.1 C 76 % 1018.0 hPa 0.0 l/m 3.2 km/h (1 Bft) O-SO 15.7 C 20.1 C
16.06.2002 02:00 18.9 C 82 % 1018.0 hPa 0.0 l/m 2.1 km/h (1 Bft) O-SO 15.8 C 18.9 C
16.06.2002 03:00 17.8 C 88 % 1018.0 hPa 0.0 l/m 0.8 km/h (0 Bft) O-SO 15.7 C 17.8 C
16.06.2002 04:00 17.2 C 91 % 1018.0 hPa 0.0 l/m 0.4 km/h (0 Bft) O-SO 15.8 C 17.2 C
16.06.2002 05:00 16.8 C 94 % 1018.6 hPa 0.0 l/m 0.2 km/h (0 Bft) N 15.7 C 16.8 C
16.06.2002 06:00 17.2 C 94 % 1019.0 hPa 0.0 l/m 0.4 km/h (0 Bft) O-SO 16.2 C 17.2 C
16.06.2002 07:00 18.7 C 88 % 1019.0 hPa 0.0 l/m 0.0 km/h (0 Bft) N 16.6 C 18.7 C
16.06.2002 08:00 19.8 C 82 % 1019.9 hPa 0.0 l/m 0.1 km/h (0 Bft) NW 16.6 C 19.8 C
16.06.2002 09:00 22.1 C 76 % 1019.7 hPa 0.0 l/m 0.3 km/h (0 Bft) O-SO 17.7 C 22.1 C
16.06.2002 10:00 24.8 C 61 % 1019.5 hPa 0.0 l/m 6.7 km/h (2 Bft) NW 16.6 C 24.8 C
16.06.2002 11:00 24.6 C 51 % 1020.3 hPa 0.0 l/m 16.2 km/h (3 Bft) NW 13.7 C 24.6 C
16.06.2002 12:00 24.0 C 53 % 1021.1 hPa 0.0 l/m 7.3 km/h (2 Bft) NW 13.9 C 24.0 C
16.06.2002 13:00 24.7 C 56 % 1020.2 hPa 0.0 l/m 2.2 km/h (1 Bft) NW 15.4 C 24.7 C
16.06.2002 14:00 26.4 C 54 % 1020.1 hPa 0.0 l/m 3.9 km/h (1 Bft) O-SO 16.4 C 26.4 C
16.06.2002 15:00 28.8 C 48 % 1019.5 hPa 0.0 l/m 4.8 km/h (1 Bft) NW 16.7 C 28.8 C
16.06.2002 16:00 29.7 C 46 % 1019.0 hPa 0.0 l/m 2.0 km/h (1 Bft) NW 16.7 C 29.7 C
16.06.2002 17:00 30.8 C 42 % 1018.6 hPa 0.0 l/m 4.0 km/h (1 Bft) W-NW 16.4 C 30.8 C
16.06.2002 18:00 30.3 C 45 % 1018.0 hPa 0.0 l/m 4.4 km/h (1 Bft) NW 17.0 C 30.3 C
16.06.2002 19:00 29.2 C 47 % 1018.0 hPa 0.0 l/m 0.8 km/h (0 Bft) W 16.8 C 29.2 C
16.06.2002 20:00 27.0 C 55 % 1018.0 hPa 0.0 l/m 2.3 km/h (1 Bft) O-SO 17.1 C 27.0 C
16.06.2002 21:00 23.4 C 65 % 1018.8 hPa 0.0 l/m 6.2 km/h (2 Bft) O-SO 16.5 C 23.4 C
16.06.2002 22:00 21.0 C 75 % 1019.1 hPa 0.0 l/m 4.3 km/h (1 Bft) O-SO 16.4 C 21.0 C
16.06.2002 23:00 19.3 C 81 % 1019.3 hPa 0.0 l/m 1.6 km/h (1 Bft) O-SO 15.9 C 19.3 C
Min-Datum _ 11.06.02 15.06.02 10.06.02 - 10.06.02 - 10.06.02 12.06.02
_ Min-Zeit 04:34 16:59 00:00 - 00:00 - 15:51 04:41
Minimum _ 6.4 C 27 % 1010.8 hPa - 0.0 km/h (0 Bft) - 4.4 C 5.5 C
Max-Datum _ 15.06.02 10.06.02 12.06.02 10.06.02 13.06.02 - 16.06.02 15.06.02
_ Max-Zeit 16:38 00:15 00:00 02:00 16:48 - 10:18 16:38
Maximum _ 32.2 C 100 % 1021.1 hPa 1.2 l/m 44.3 km/h
NW (6 Bft)
- 18.6 C 32.2 C
Durchschnitt _ 18.8 C 70 % 1018.2 hPa #2.4 l/m 6.8 km/h (2 Bft) NW 12.2 C 18.7 C

Durchschnitt Minimum Temp.17.8 C
Durchschnitt Maximum Temp.19.8 C
© Kaiko 2002